Time;durP1;ratioP1;P1;durP2;ratioP2;P2;SDS_P1;SDS_P2;PMS_P1;PMS_P2;Temp;Humidity;BMP_temperature;BMP_pressure;BME280_temperature;BME280_humidity;BME280_pressure;Samples;Min_cycle;Max_cycle;Signal;HPM_P1;HPM_P2
2023/04/29 00:00:05;;;;;;;;;4.00;4.00;;;;;18.96;60.95;100903.44;4883023;29;45351;-84
2023/04/29 00:02:31;;;;;;;;;5.00;4.00;;;;;19.01;61.36;100915.94;4883176;29;45424;-85
2023/04/29 00:04:57;;;;;;;;;9.67;9.67;;;;;19.07;61.20;100919.44;4884662;29;47917;-85
2023/04/29 00:07:23;;;;;;;;;7.67;7.67;;;;;18.97;61.31;100902.53;4885100;29;45688;-86
2023/04/29 00:09:48;;;;;;;;;4.00;4.00;;;;;18.87;61.07;100882.06;4871057;29;45534;-86
2023/04/29 00:12:13;;;;;;;;;8.33;7.67;;;;;19.01;60.96;100915.94;4886695;29;45402;-85
2023/04/29 00:14:50;;;;;;;;;6.33;6.00;;;;;19.08;61.51;100869.09;4885442;29;47029;-86
2023/04/29 00:17:19;;;;;;;;;5.33;5.33;;;;;18.67;61.89;100868.03;4885655;29;45462;-86
2023/04/29 00:19:44;;;;;;;;;6.00;6.00;;;;;18.88;61.44;100909.91;4875123;29;45499;-86
2023/04/29 00:22:11;;;;;;;;;10.67;9.00;;;;;19.32;61.19;100906.38;4868824;29;45471;-85
2023/04/29 00:24:42;;;;;;;;;8.00;6.33;;;;;19.51;61.06;100912.31;4870323;29;45312;-85
2023/04/29 00:27:10;;;;;;;;;6.00;6.00;;;;;19.04;61.37;100897.03;4870044;29;45498;-85
2023/04/29 00:29:36;;;;;;;;;7.00;7.00;;;;;18.79;61.35;100860.63;4869081;29;45401;-86
2023/04/29 00:32:01;;;;;;;;;7.00;7.00;;;;;19.11;61.40;100913.06;4869843;29;45299;-85
2023/04/29 00:34:31;;;;;;;;;10.00;7.00;;;;;19.50;60.95;100920.44;4853125;29;48352;-86
2023/04/29 00:36:56;;;;;;;;;8.33;7.00;;;;;19.17;60.83;100910.25;4852773;29;45528;-86
2023/04/29 00:39:22;;;;;;;;;6.67;6.67;;;;;19.18;61.06;100905.75;4868611;29;45478;-86
2023/04/29 00:41:47;;;;;;;;;9.67;9.67;;;;;19.18;60.98;100916.53;4852815;29;45508;-86
2023/04/29 00:44:13;;;;;;;;;4.00;3.00;;;;;19.09;60.98;100898.72;4869104;29;46944;-86
2023/04/29 00:46:38;;;;;;;;;9.00;6.00;;;;;19.14;61.08;100901.34;4872583;29;45399;-86
2023/04/29 00:49:04;;;;;;;;;8.00;8.00;;;;;19.16;60.93;100883.31;4871411;29;45420;-85
2023/04/29 00:51:30;;;;;;;;;10.00;9.00;;;;;19.00;61.03;100893.50;4869920;29;45702;-86
2023/04/29 00:53:55;;;;;;;;;9.67;6.67;;;;;18.98;61.28;100903.41;4872289;29;46072;-85
2023/04/29 00:56:24;;;;;;;;;6.00;5.00;;;;;18.97;61.58;100899.84;4869919;29;45373;-86
2023/04/29 00:58:51;;;;;;;;;10.00;8.00;;;;;19.16;61.09;100888.72;4869492;29;45442;-86
2023/04/29 01:01:18;;;;;;;;;8.33;8.33;;;;;18.94;61.82;100894.50;4853460;29;45781;-86
2023/04/29 01:03:44;;;;;;;;;9.67;9.67;;;;;18.81;62.05;100884.88;4869608;29;48316;-86
2023/04/29 01:06:31;;;;;;;;;6.00;5.00;;;;;19.35;61.14;100898.25;4852496;29;45373;-85
2023/04/29 01:09:15;;;;;;;;;7.67;5.67;;;;;19.30;60.75;100897.41;4870051;29;45503;-86
2023/04/29 01:12:19;;;;;;;;;7.00;5.67;;;;;19.16;61.28;100899.50;4869983;29;45348;-86
2023/04/29 01:15:05;;;;;;;;;10.33;10.00;;;;;18.96;61.91;100892.66;4851953;29;47951;-86
2023/04/29 01:17:38;;;;;;;;;10.67;10.67;;;;;18.95;61.81;100895.41;4869916;29;45616;-85
2023/04/29 01:20:05;;;;;;;;;10.33;10.00;;;;;18.64;62.12;100886.91;4854199;29;45457;-85
2023/04/29 01:22:31;;;;;;;;;7.00;7.00;;;;;18.58;62.27;100879.81;4882059;29;46551;-85
2023/04/29 01:25:08;;;;;;;;;10.67;8.67;;;;;18.64;62.03;100885.09;4888225;29;46928;-86
2023/04/29 01:27:45;;;;;;;;;11.67;10.67;;;;;18.86;62.03;100866.78;4888532;29;45444;-86
2023/04/29 01:30:32;;;;;;;;;9.67;9.67;;;;;18.94;62.30;100894.50;4890534;29;45736;-86
2023/04/29 01:33:08;;;;;;;;;10.00;9.33;;;;;18.79;62.37;100881.31;4887579;29;45474;-86
2023/04/29 01:36:24;;;;;;;;;7.00;7.00;;;;;18.83;61.96;100869.56;4888341;29;45465;-85
2023/04/29 01:39:13;;;;;;;;;10.00;10.00;;;;;19.10;61.68;100891.53;4887809;29;45410;-86
2023/04/29 01:41:51;;;;;;;;;12.67;9.00;;;;;18.82;62.63;100883.94;4887755;29;45505;-86
2023/04/29 01:44:22;;;;;;;;;9.00;9.00;;;;;18.74;62.29;100884.06;4870324;29;45472;-86
2023/04/29 01:46:52;;;;;;;;;9.00;9.00;;;;;18.86;62.74;100885.66;4886445;29;47996;-86
2023/04/29 01:49:25;;;;;;;;;8.67;7.33;;;;;18.90;62.47;100876.59;4872166;29;45419;-86
2023/04/29 01:51:50;;;;;;;;;11.33;10.33;;;;;18.53;62.31;100884.41;4871677;29;45541;-86
2023/04/29 01:54:20;;;;;;;;;9.67;9.67;;;;;18.54;62.50;100884.41;4889464;29;45384;-86
2023/04/29 01:56:46;;;;;;;;;9.67;9.67;;;;;18.50;62.34;100888.06;4889058;29;46092;-86
2023/04/29 01:59:11;;;;;;;;;10.67;8.67;;;;;18.57;62.56;100889.72;4888525;29;45423;-85
2023/04/29 02:01:37;;;;;;;;;11.00;9.00;;;;;18.53;62.56;100881.72;4887985;29;45461;-85
2023/04/29 02:04:02;;;;;;;;;8.67;8.00;;;;;18.56;62.40;100879.88;4888210;29;45421;-86
2023/04/29 02:06:32;;;;;;;;;9.00;8.67;;;;;18.82;62.54;100872.28;4887052;29;46873;-85
2023/04/29 02:08:57;;;;;;;;;10.00;7.67;;;;;18.51;62.77;100878.16;4887023;29;46029;-86
2023/04/29 02:11:23;;;;;;;;;8.00;8.00;;;;;18.63;62.46;100893.25;4870283;29;46526;-85
2023/04/29 02:13:48;;;;;;;;;10.67;10.67;;;;;18.61;62.67;100892.38;4887015;29;45437;-85
2023/04/29 02:16:14;;;;;;;;;11.00;11.00;;;;;18.66;62.23;100880.59;4886958;29;46076;-86
2023/04/29 02:19:30;;;;;;;;;8.67;8.67;;;;;19.06;61.46;100887.13;4880586;29;45357;-86
2023/04/29 02:21:55;;;;;;;;;10.33;10.33;;;;;18.49;62.56;100888.94;4867167;29;45425;-86
2023/04/29 02:24:21;;;;;;;;;12.00;11.33;;;;;18.49;62.60;100894.34;4867777;29;45424;-85
2023/04/29 02:26:46;;;;;;;;;9.00;9.00;;;;;18.49;62.59;100899.72;4866435;29;46967;-85
2023/04/29 02:29:11;;;;;;;;;9.67;8.67;;;;;18.44;62.37;100893.53;4867039;29;45429;-85
2023/04/29 02:31:38;;;;;;;;;10.67;9.00;;;;;18.72;62.61;100898.44;4850797;29;51018;-86
2023/04/29 02:34:03;;;;;;;;;13.67;12.00;;;;;18.35;62.71;100894.56;4867813;29;46016;-86
2023/04/29 02:36:29;;;;;;;;;10.00;10.00;;;;;18.28;62.64;100895.59;4866461;29;47045;-85
2023/04/29 02:39:01;;;;;;;;;10.00;10.00;;;;;18.75;62.39;100909.19;4866472;29;45458;-85
2023/04/29 02:41:26;;;;;;;;;11.67;11.00;;;;;18.23;62.98;100904.63;4850053;29;45428;-86
2023/04/29 02:43:52;;;;;;;;;9.00;8.67;;;;;18.16;63.22;100904.72;4852305;29;45422;-86
2023/04/29 02:46:17;;;;;;;;;11.33;10.33;;;;;18.13;62.89;100888.59;4866513;29;47108;-86
2023/04/29 02:48:43;;;;;;;;;10.67;10.00;;;;;18.23;63.13;100891.16;4852081;29;46056;-86
2023/04/29 02:51:09;;;;;;;;;12.00;10.33;;;;;18.06;63.30;100897.69;4850857;29;45402;-85
2023/04/29 02:53:34;;;;;;;;;10.33;10.33;;;;;18.02;63.44;100898.66;4867902;29;45390;-85
2023/04/29 02:56:00;;;;;;;;;9.67;9.67;;;;;18.05;63.44;100897.72;4868885;29;45297;-86
2023/04/29 02:58:25;;;;;;;;;11.00;11.00;;;;;18.14;63.41;100903.84;4866458;29;45421;-87
2023/04/29 03:00:51;;;;;;;;;7.67;7.33;;;;;18.08;63.03;100906.63;4850057;29;45966;-85
2023/04/29 03:03:16;;;;;;;;;13.00;10.00;;;;;18.10;63.42;100904.81;4850431;29;45483;-86
2023/04/29 03:06:03;;;;;;;;;12.00;12.00;;;;;17.94;63.55;100897.88;4868109;29;47139;-86
2023/04/29 03:08:28;;;;;;;;;10.67;10.67;;;;;17.80;63.64;100884.56;4868774;29;45486;-86
2023/04/29 03:10:54;;;;;;;;;11.33;11.33;;;;;17.93;63.70;100901.47;4867523;29;45402;-85
2023/04/29 03:13:19;;;;;;;;;11.00;11.00;;;;;17.96;63.49;100905.00;4869089;29;45474;-86
2023/04/29 03:15:45;;;;;;;;;9.00;9.00;;;;;17.96;63.52;100907.69;4852111;29;47387;-85
2023/04/29 03:18:10;;;;;;;;;10.00;9.67;;;;;17.96;63.50;100907.69;4852176;29;45774;-86
2023/04/29 03:20:36;;;;;;;;;6.00;6.00;;;;;17.90;63.80;100914.97;4852662;29;45398;-86
2023/04/29 03:23:01;;;;;;;;;12.33;12.33;;;;;17.91;63.25;100911.34;4853588;29;45375;-86
2023/04/29 03:25:27;;;;;;;;;12.00;12.00;;;;;17.89;63.83;100905.09;4867680;29;46594;-86
2023/04/29 03:27:53;;;;;;;;;10.00;10.00;;;;;17.84;63.60;100912.38;4870246;29;45724;-85
2023/04/29 03:30:18;;;;;;;;;12.33;12.33;;;;;17.82;63.53;100912.34;4870196;29;45425;-86
2023/04/29 03:32:43;;;;;;;;;11.00;10.00;;;;;17.97;63.79;100913.97;4884078;29;44770;-85
2023/04/29 03:35:10;;;;;;;;;10.33;10.33;;;;;18.00;63.47;100913.94;4886759;29;45601;-86
2023/04/29 03:37:36;;;;;;;;;11.67;11.00;;;;;17.99;63.46;100923.78;4883420;29;45444;-86
2023/04/29 03:40:01;;;;;;;;;15.67;13.33;;;;;18.03;63.19;100913.00;4884536;29;45747;-86
2023/04/29 03:42:26;;;;;;;;;11.00;11.00;;;;;18.04;63.27;100918.38;4884195;29;45520;-84
2023/04/29 03:45:08;;;;;;;;;12.67;11.00;;;;;18.41;63.33;100935.78;4870341;29;47533;-85
2023/04/29 03:50:56;;;;;;;;;13.00;12.00;;;;;18.06;63.09;100927.31;4886700;29;45405;-85
2023/04/29 03:53:21;;;;;;;;;13.00;13.00;;;;;18.04;63.30;100930.91;4886513;29;45566;-86
2023/04/29 03:55:48;;;;;;;;;13.00;13.00;;;;;18.22;63.70;100919.91;4887144;29;45493;-85
2023/04/29 03:58:13;;;;;;;;;14.00;14.00;;;;;17.89;63.87;100937.38;4886603;29;45479;-86
2023/04/29 04:00:39;;;;;;;;;15.00;14.00;;;;;17.89;63.91;100932.00;4889565;29;45347;-85
2023/04/29 04:03:05;;;;;;;;;15.67;14.67;;;;;18.22;64.10;100925.28;4889774;29;45415;-85
2023/04/29 04:05:35;;;;;;;;;16.33;14.33;;;;;18.11;64.15;100928.13;4889602;29;46312;-85
2023/04/29 04:08:00;;;;;;;;;15.00;13.00;;;;;18.04;63.62;100945.28;4888806;29;45460;-86
2023/04/29 04:10:27;;;;;;;;;14.33;12.67;;;;;18.08;63.72;100940.75;4890072;29;45311;-85
2023/04/29 04:12:52;;;;;;;;;14.33;13.00;;;;;18.09;63.55;100950.59;4889294;29;45424;-86
2023/04/29 04:15:25;;;;;;;;;16.33;16.33;;;;;18.56;63.34;100949.91;4873850;29;47154;-85
2023/04/29 04:17:50;;;;;;;;;19.67;17.33;;;;;18.03;63.49;100934.53;4888508;29;45411;-85
2023/04/29 04:20:16;;;;;;;;;12.67;11.67;;;;;17.90;63.76;100929.31;4890973;29;45409;-86
2023/04/29 04:22:41;;;;;;;;;18.33;16.00;;;;;18.08;63.93;100956.91;4890528;29;45408;-86
2023/04/29 04:25:17;;;;;;;;;20.00;19.00;;;;;18.51;63.21;100953.56;4890634;29;45398;-85
2023/04/29 04:27:42;;;;;;;;;15.00;13.33;;;;;17.92;63.68;100937.38;4862161;29;45469;-85
2023/04/29 04:30:08;;;;;;;;;16.00;13.67;;;;;18.14;63.97;100959.50;4854755;29;45356;-85
2023/04/29 04:32:34;;;;;;;;;15.00;13.67;;;;;18.34;64.26;100962.81;4872419;29;45538;-85
2023/04/29 04:35:12;;;;;;;;;16.33;13.33;;;;;18.47;63.38;100963.50;4870125;29;47240;-85
2023/04/29 04:37:37;;;;;;;;;18.33;14.67;;;;;17.97;63.70;100960.59;4869333;29;45448;-85
2023/04/29 04:40:03;;;;;;;;;16.00;14.33;;;;;18.03;63.91;100967.69;4869243;29;45441;-85
2023/04/29 04:42:28;;;;;;;;;18.00;16.67;;;;;17.84;63.78;100967.06;4854700;29;45389;-85
2023/04/29 04:44:54;;;;;;;;;23.00;19.67;;;;;17.87;64.12;100960.72;4852777;29;48128;-85
2023/04/29 04:47:20;;;;;;;;;20.33;19.00;;;;;17.79;64.10;100977.84;4869657;29;45466;-86
2023/04/29 04:49:45;;;;;;;;;18.67;17.33;;;;;17.78;64.51;100970.66;4868755;29;45456;-85
2023/04/29 04:52:11;;;;;;;;;19.67;18.00;;;;;17.74;64.33;100971.63;4869256;29;45420;-86
2023/04/29 04:54:45;;;;;;;;;16.67;16.67;;;;;18.00;64.56;100973.13;4852434;29;47499;-85
2023/04/29 04:57:10;;;;;;;;;23.00;21.33;;;;;17.71;64.52;100987.78;4868467;29;45948;-85
2023/04/29 04:59:35;;;;;;;;;16.33;16.33;;;;;17.66;64.83;100981.56;4869981;29;45319;-86
2023/04/29 05:02:01;;;;;;;;;19.67;18.00;;;;;17.69;64.41;100984.22;4869622;29;45420;-85
2023/04/29 05:04:50;;;;;;;;;19.00;18.33;;;;;18.17;64.52;101003.41;4869674;29;47416;-86
2023/04/29 05:07:15;;;;;;;;;19.00;18.00;;;;;17.79;64.86;100996.69;4869348;29;45397;-85
2023/04/29 05:09:41;;;;;;;;;19.00;19.00;;;;;17.68;64.72;100966.31;4868595;29;45971;-85
2023/04/29 05:12:06;;;;;;;;;19.33;17.00;;;;;17.87;64.95;100995.72;4871190;29;44909;-86
2023/04/29 05:14:32;;;;;;;;;16.00;14.33;;;;;17.85;64.95;101001.09;4872102;29;45804;-85
2023/04/29 05:16:58;;;;;;;;;21.67;19.00;;;;;18.08;64.41;101008.91;4869542;29;45481;-87
2023/04/29 05:19:24;;;;;;;;;19.67;18.67;;;;;17.81;64.38;100993.94;4869831;29;45350;-86
2023/04/29 05:21:50;;;;;;;;;20.00;19.00;;;;;17.82;64.57;101013.69;4871950;29;45428;-85
2023/04/29 05:24:37;;;;;;;;;17.33;16.33;;;;;17.93;64.69;101001.03;4870585;29;45765;-86
2023/04/29 05:27:03;;;;;;;;;18.67;17.00;;;;;17.62;65.10;101009.41;4870481;29;45456;-86
2023/04/29 05:29:30;;;;;;;;;16.33;15.67;;;;;17.87;65.77;101015.44;4856467;29;45677;-85
2023/04/29 05:31:55;;;;;;;;;14.33;14.00;;;;;17.57;65.18;101022.00;4882082;29;45736;-86
2023/04/29 05:34:52;;;;;;;;;19.33;18.67;;;;;17.98;65.16;101015.31;4887023;29;46567;-86
2023/04/29 05:37:17;;;;;;;;;18.00;16.67;;;;;17.53;65.38;101029.25;4887784;29;45883;-85
2023/04/29 05:39:43;;;;;;;;;18.67;16.33;;;;;17.56;65.72;101021.13;4888169;29;45853;-85
2023/04/29 05:42:09;;;;;;;;;22.67;20.67;;;;;17.53;66.03;101025.63;4888270;29;45545;-86
2023/04/29 05:44:44;;;;;;;;;21.67;20.00;;;;;17.89;65.18;101019.00;4889146;29;46264;-84
2023/04/29 05:47:10;;;;;;;;;20.00;18.67;;;;;17.56;66.07;101048.00;4870188;29;45440;-85
2023/04/29 05:49:35;;;;;;;;;23.33;20.67;;;;;17.62;66.25;101063.22;4888295;29;45444;-85
2023/04/29 05:52:05;;;;;;;;;25.33;22.33;;;;;17.55;65.92;101061.47;4871245;29;45449;-85
2023/04/29 05:54:37;;;;;;;;;15.67;15.67;;;;;18.02;65.90;101057.44;4887920;29;47280;-84
2023/04/29 05:57:03;;;;;;;;;17.33;17.33;;;;;17.40;66.47;101041.88;4873539;29;45605;-85
2023/04/29 05:59:32;;;;;;;;;17.00;13.00;;;;;17.66;66.49;101058.69;4889434;29;45287;-85
2023/04/29 06:01:58;;;;;;;;;20.00;17.67;;;;;17.60;66.83;101070.41;4890213;29;45435;-84
2023/04/29 06:04:29;;;;;;;;;18.33;18.00;;;;;17.92;67.56;101055.75;4889534;29;45457;-84
2023/04/29 06:06:56;;;;;;;;;21.33;17.67;;;;;17.62;67.09;101063.22;4888094;29;45460;-84
2023/04/29 06:09:25;;;;;;;;;21.67;20.67;;;;;17.56;66.69;101071.34;4872748;29;45328;-84
2023/04/29 06:11:51;;;;;;;;;18.33;14.00;;;;;17.56;67.24;101068.66;4888323;29;45264;-84
2023/04/29 06:14:18;;;;;;;;;17.00;15.67;;;;;17.93;66.72;101063.78;4887565;29;48306;-85
2023/04/29 06:16:43;;;;;;;;;20.67;19.00;;;;;17.68;66.45;101067.63;4888755;29;45491;-85
2023/04/29 06:19:09;;;;;;;;;21.00;18.00;;;;;17.87;66.43;101065.66;4887268;29;45491;-85
2023/04/29 06:21:34;;;;;;;;;18.33;17.00;;;;;17.99;66.47;101081.69;4887645;29;45404;-84
2023/04/29 06:23:59;;;;;;;;;12.67;12.67;;;;;18.01;66.54;101069.09;4871108;29;47459;-84
2023/04/29 06:26:25;;;;;;;;;18.67;17.33;;;;;18.08;66.05;101073.50;4872532;29;45490;-84
2023/04/29 06:28:50;;;;;;;;;21.00;17.00;;;;;18.07;65.95;101066.34;4888093;29;45573;-85
2023/04/29 06:31:16;;;;;;;;;19.33;14.67;;;;;18.06;66.28;101071.75;4888652;29;45478;-85
2023/04/29 06:33:41;;;;;;;;;13.33;12.00;;;;;18.24;65.62;101084.06;4870048;29;48369;-85
2023/04/29 06:36:07;;;;;;;;;17.33;17.00;;;;;18.06;65.37;101083.41;4886442;29;45800;-84
2023/04/29 06:38:33;;;;;;;;;17.67;17.00;;;;;18.04;65.67;101087.91;4886643;29;45508;-84
2023/04/29 06:40:59;;;;;;;;;19.67;18.00;;;;;18.03;66.19;101096.00;4888265;29;45444;-85
2023/04/29 06:43:29;;;;;;;;;19.67;17.00;;;;;18.48;66.14;101082.88;4871506;29;47281;-85
2023/04/29 06:45:54;;;;;;;;;17.33;16.33;;;;;18.10;65.69;101085.16;4870520;29;45848;-85
2023/04/29 06:48:20;;;;;;;;;20.00;19.67;;;;;18.08;66.49;101089.66;4888359;29;45371;-85
2023/04/29 06:50:55;;;;;;;;;19.33;14.33;;;;;18.41;66.31;101087.47;4870641;29;45437;-85
2023/04/29 06:53:21;;;;;;;;;19.33;16.33;;;;;17.95;67.27;101094.28;4885530;29;47209;-85
2023/04/29 06:56:06;;;;;;;;;21.33;17.00;;;;;18.28;66.62;101080.44;4886123;29;45503;-85
2023/04/29 06:58:32;;;;;;;;;18.33;14.00;;;;;18.06;66.52;101099.56;4887325;29;45446;-85
2023/04/29 07:00:57;;;;;;;;;18.67;18.67;;;;;18.11;66.42;101097.69;4871711;29;45775;-85
2023/04/29 07:03:22;;;;;;;;;17.67;15.00;;;;;18.14;66.36;101100.34;4886914;29;48206;-85
2023/04/29 07:05:51;;;;;;;;;19.00;19.00;;;;;18.44;66.09;101081.13;4889112;29;45934;-85
2023/04/29 07:08:17;;;;;;;;;20.33;17.67;;;;;18.12;66.02;101112.06;4886446;29;45467;-85
2023/04/29 07:10:42;;;;;;;;;24.00;18.67;;;;;18.21;66.80;101124.50;4870740;29;45487;-85
2023/04/29 07:13:09;;;;;;;;;22.00;18.67;;;;;18.44;67.59;101119.75;4887970;29;46845;-85
2023/04/29 07:15:35;;;;;;;;;21.33;19.00;;;;;18.08;67.63;101116.59;4872979;29;45430;-86
2023/04/29 07:18:07;;;;;;;;;22.33;18.00;;;;;18.54;67.03;101110.66;4888033;29;45489;-85
2023/04/29 07:20:35;;;;;;;;;18.67;16.67;;;;;18.37;67.13;101108.16;4888859;29;45145;-84
2023/04/29 07:23:01;;;;;;;;;20.67;18.33;;;;;18.14;66.64;101121.91;4869768;29;48421;-85
2023/04/29 07:25:28;;;;;;;;;21.67;20.33;;;;;18.50;66.51;101119.69;4870433;29;45620;-85
2023/04/29 07:27:54;;;;;;;;;28.33;25.33;;;;;18.29;66.62;101123.50;4888953;29;45557;-84
2023/04/29 07:30:20;;;;;;;;;25.00;24.00;;;;;18.27;66.41;101127.13;4871134;29;45525;-85
2023/04/29 07:32:45;;;;;;;;;21.67;21.67;;;;;18.30;66.88;101127.09;4888373;29;45864;-86
2023/04/29 07:35:13;;;;;;;;;29.33;26.67;;;;;18.55;66.32;101117.81;4892375;29;45442;-85
2023/04/29 07:37:40;;;;;;;;;21.33;18.67;;;;;18.56;66.64;101141.16;4891067;29;45432;-84
2023/04/29 07:40:07;;;;;;;;;30.00;26.67;;;;;18.58;66.87;101133.94;4889956;29;45435;-85
2023/04/29 07:42:33;;;;;;;;;37.00;30.33;;;;;18.23;66.46;101136.16;4891264;29;47273;-85
2023/04/29 07:45:07;;;;;;;;;35.00;29.00;;;;;18.63;66.76;101141.06;4887910;29;45554;-85
2023/04/29 07:47:33;;;;;;;;;31.00;31.00;;;;;18.15;66.67;101130.84;4890982;29;45678;-84
2023/04/29 07:49:58;;;;;;;;;35.67;29.67;;;;;18.20;67.15;101137.09;4889503;29;45325;-85
2023/04/29 07:52:30;;;;;;;;;30.00;25.67;;;;;18.18;66.50;101139.78;4888879;29;47164;-85
2023/04/29 07:55:24;;;;;;;;;31.67;26.33;;;;;18.58;66.07;101144.72;4890656;29;45479;-85
2023/04/29 07:57:51;;;;;;;;;26.00;22.33;;;;;18.35;66.70;101134.22;4871959;29;45487;-85
2023/04/29 08:00:17;;;;;;;;;33.67;29.33;;;;;18.05;66.32;101126.47;4887858;29;44930;-85
2023/04/29 08:02:43;;;;;;;;;35.33;30.00;;;;;18.23;66.20;101144.22;4887933;29;47154;-85
2023/04/29 08:05:08;;;;;;;;;27.33;26.67;;;;;18.30;66.37;101148.63;4888799;29;45707;-85
2023/04/29 08:07:34;;;;;;;;;30.33;26.67;;;;;18.35;66.31;101136.00;4889375;29;45438;-86
2023/04/29 08:09:59;;;;;;;;;47.00;36.00;;;;;18.47;66.10;101140.38;4889785;29;45383;-86
2023/04/29 08:12:25;;;;;;;;;38.67;35.00;;;;;18.57;65.84;101142.03;4890292;29;45343;-84
2023/04/29 08:14:51;;;;;;;;;37.33;33.67;;;;;18.91;65.42;101131.72;4890424;29;45282;-85
2023/04/29 08:17:17;;;;;;;;;49.67;36.67;;;;;18.76;65.04;101145.38;4890096;29;44919;-85
2023/04/29 08:19:42;;;;;;;;;35.67;30.33;;;;;18.75;64.83;101138.22;4890842;29;45732;-85
2023/04/29 08:22:10;;;;;;;;;44.33;35.33;;;;;18.78;63.97;101144.47;4888719;29;47157;-85
2023/04/29 08:24:35;;;;;;;;;36.67;29.33;;;;;18.71;64.40;101155.34;4887903;29;45418;-86
2023/04/29 08:27:00;;;;;;;;;41.67;34.00;;;;;18.76;64.22;101137.28;4880968;29;45470;-85
2023/04/29 08:29:26;;;;;;;;;37.00;34.67;;;;;18.89;63.74;101146.16;4869013;29;45504;-84
2023/04/29 08:31:51;;;;;;;;;27.33;26.67;;;;;18.93;63.75;101156.84;4869584;29;46998;-85
2023/04/29 08:34:17;;;;;;;;;42.67;36.00;;;;;18.96;63.34;101146.00;4852704;29;45853;-85
2023/04/29 08:36:42;;;;;;;;;26.00;21.00;;;;;19.00;62.92;101157.66;4853167;29;45512;-85
2023/04/29 08:39:08;;;;;;;;;40.00;35.00;;;;;18.88;62.99;101152.44;4852847;29;45606;-84
2023/04/29 08:41:50;;;;;;;;;47.00;37.00;;;;;19.24;63.21;101147.44;4592254;29;8208902;-85
2023/04/29 08:44:16;;;;;;;;;38.33;33.00;;;;;18.85;63.67;101158.75;4871679;29;47624;-85
2023/04/29 08:46:44;;;;;;;;;43.33;36.00;;;;;19.12;63.39;101146.69;4872691;29;45316;-84
2023/04/29 08:49:10;;;;;;;;;33.00;27.33;;;;;18.86;63.53;101147.06;4872916;29;45343;-85
2023/04/29 08:51:36;;;;;;;;;46.67;36.33;;;;;18.97;63.52;101153.22;4873127;29;45416;-85
2023/04/29 08:54:01;;;;;;;;;37.33;34.00;;;;;19.13;62.94;101147.59;4855457;29;47062;-85
2023/04/29 08:56:29;;;;;;;;;43.33;36.67;;;;;19.43;63.25;101150.72;4854449;29;45423;-85
2023/04/29 08:58:57;;;;;;;;;36.00;34.33;;;;;19.47;63.20;101147.97;4870208;29;45340;-84
2023/04/29 09:01:26;;;;;;;;;33.33;30.00;;;;;19.68;62.96;101153.94;4855433;29;45438;-85
2023/04/29 09:04:11;;;;;;;;;37.00;35.67;;;;;20.16;62.38;101154.88;4872985;29;45424;-86
2023/04/29 09:06:37;;;;;;;;;44.33;37.00;;;;;19.92;61.63;101153.53;4871403;29;45432;-84
2023/04/29 09:09:02;;;;;;;;;38.67;34.33;;;;;20.00;61.02;101156.09;4855637;29;45354;-85
2023/04/29 09:11:30;;;;;;;;;38.00;36.00;;;;;20.34;60.89;101164.44;4871369;29;45950;-85
2023/04/29 09:14:03;;;;;;;;;45.00;36.00;;;;;20.37;60.43;101158.06;4855232;29;47532;-85
2023/04/29 09:16:29;;;;;;;;;38.00;34.00;;;;;19.96;60.53;101165.16;4869761;29;45583;-85
2023/04/29 09:18:55;;;;;;;;;40.33;34.00;;;;;19.90;60.56;101162.56;4871555;29;45449;-85
2023/04/29 09:21:27;;;;;;;;;50.33;39.00;;;;;20.26;59.59;101171.81;4870433;29;45310;-86
2023/04/29 09:23:59;;;;;;;;;41.33;34.00;;;;;20.31;60.54;101169.88;4870589;29;46374;-85
2023/04/29 09:26:25;;;;;;;;;38.33;35.00;;;;;20.16;60.75;101181.88;4874329;29;45432;-85
2023/04/29 09:29:17;;;;;;;;;34.33;32.33;;;;;20.76;58.72;101171.72;4870397;29;45518;-85
2023/04/29 09:31:42;;;;;;;;;38.33;34.00;;;;;20.32;59.39;101179.78;4871083;29;45385;-85
2023/04/29 09:34:10;;;;;;;;;36.33;34.67;;;;;20.26;59.35;101176.28;4873030;29;46042;-85
2023/04/29 09:36:40;;;;;;;;;36.67;30.00;;;;;20.16;59.53;101176.47;4871860;29;45543;-84
2023/04/29 09:39:10;;;;;;;;;42.00;36.00;;;;;20.51;58.91;101172.19;4874210;29;45443;-85
2023/04/29 09:41:42;;;;;;;;;47.33;39.67;;;;;20.31;59.19;101182.50;4854448;29;45698;-85
2023/04/29 09:44:08;;;;;;;;;43.00;38.00;;;;;20.00;59.24;101164.19;4870524;29;46846;-85
2023/04/29 09:46:35;;;;;;;;;44.00;35.67;;;;;20.05;58.47;101181.19;4871076;29;45494;-85
2023/04/29 09:49:22;;;;;;;;;44.00;37.33;;;;;20.03;58.98;101179.44;4870928;29;45527;-84
2023/04/29 09:51:53;;;;;;;;;42.33;33.00;;;;;20.34;59.26;101185.13;4854305;29;45625;-85
2023/04/29 09:54:23;;;;;;;;;43.33;37.00;;;;;20.38;58.90;101200.41;4870733;29;47199;-85
2023/04/29 09:56:51;;;;;;;;;38.00;34.00;;;;;20.18;59.21;101185.44;4872642;29;45538;-85
2023/04/29 09:59:21;;;;;;;;;43.67;37.00;;;;;20.39;58.57;101194.06;4870705;29;45718;-84
2023/04/29 10:01:51;;;;;;;;;48.33;38.33;;;;;20.14;58.83;101181.03;4871569;29;45511;-85
2023/04/29 10:04:18;;;;;;;;;45.00;36.33;;;;;20.28;58.29;101180.75;4855125;29;47287;-85
2023/04/29 10:06:45;;;;;;;;;46.00;36.00;;;;;20.43;58.75;101194.91;4854005;29;45968;-85
2023/04/29 10:09:15;;;;;;;;;45.33;35.33;;;;;20.75;57.42;101183.47;4869351;29;45451;-85
2023/04/29 10:11:42;;;;;;;;;45.67;36.00;;;;;20.63;58.55;101186.44;4854981;29;45411;-85
2023/04/29 10:14:13;;;;;;;;;41.00;37.00;;;;;21.01;57.98;101177.50;4853856;29;47821;-85
2023/04/29 10:16:58;;;;;;;;;41.00;33.67;;;;;21.11;55.89;101178.19;4854113;29;45473;-85
2023/04/29 10:22:46;;;;;;;;;39.00;34.67;;;;;21.26;55.91;101180.53;4871288;29;45471;-85
2023/04/29 10:25:13;;;;;;;;;41.00;35.67;;;;;20.78;56.41;101186.09;4869087;29;48204;-85
2023/04/29 10:27:42;;;;;;;;;49.00;38.67;;;;;21.00;56.31;101181.09;4868736;29;45437;-85
2023/04/29 10:30:10;;;;;;;;;50.00;40.33;;;;;20.88;55.44;101182.25;4871244;29;45759;-85
2023/04/29 10:32:42;;;;;;;;;36.00;33.00;;;;;21.06;55.75;101190.91;4869512;29;45558;-85
2023/04/29 10:35:13;;;;;;;;;40.67;34.00;;;;;21.23;55.79;101188.72;4869070;29;46107;-85
2023/04/29 10:37:40;;;;;;;;;33.00;31.00;;;;;21.02;55.81;101186.50;4869774;29;44891;-85
2023/04/29 10:40:17;;;;;;;;;42.00;37.00;;;;;21.51;54.04;101177.25;4871146;29;45497;-85
2023/04/29 10:42:48;;;;;;;;;36.33;33.00;;;;;21.68;53.56;101183.16;4854278;29;45983;-84
2023/04/29 10:45:27;;;;;;;;;43.67;38.00;;;;;21.81;52.34;101191.84;4869705;29;47708;-85
2023/04/29 10:48:02;;;;;;;;;35.33;33.00;;;;;21.87;53.88;101193.53;4869511;29;45431;-85
2023/04/29 10:50:38;;;;;;;;;45.00;36.33;;;;;21.75;52.38;101173.06;4869310;29;45726;-85
2023/04/29 10:53:04;;;;;;;;;42.67;33.33;;;;;21.63;53.68;101193.19;4870236;29;45614;-84
2023/04/29 10:55:34;;;;;;;;;44.00;36.00;;;;;21.97;53.79;101176.97;4853694;29;46997;-85
2023/04/29 10:58:02;;;;;;;;;36.00;31.67;;;;;21.94;53.34;101184.31;4852678;29;45478;-85
2023/04/29 11:00:30;;;;;;;;;34.00;32.33;;;;;22.12;51.70;101186.53;4869731;29;45390;-85
2023/04/29 11:03:00;;;;;;;;;34.00;28.00;;;;;22.40;49.81;101191.25;4851314;29;45330;-85
2023/04/29 11:05:36;;;;;;;;;35.00;30.67;;;;;22.47;50.52;101184.69;4869267;29;46457;-84
2023/04/29 11:08:12;;;;;;;;;30.00;24.33;;;;;22.62;51.22;101188.78;4870129;29;45341;-84
2023/04/29 11:10:40;;;;;;;;;32.33;28.00;;;;;22.75;50.75;101187.50;4869483;29;45683;-84
2023/04/29 11:13:29;;;;;;;;;31.67;29.33;;;;;23.11;50.34;101192.81;4870394;29;45440;-85
2023/04/29 11:16:09;;;;;;;;;35.00;28.00;;;;;23.30;49.90;101193.09;4871301;29;46179;-85
2023/04/29 11:18:55;;;;;;;;;31.33;29.00;;;;;23.13;49.43;101199.06;4853723;29;45362;-85
2023/04/29 11:21:21;;;;;;;;;28.33;26.00;;;;;22.93;49.41;101194.22;4854591;29;45459;-85
2023/04/29 11:23:50;;;;;;;;;30.00;23.67;;;;;22.82;48.10;101199.06;4867993;29;45505;-85
2023/04/29 11:26:18;;;;;;;;;29.33;25.67;;;;;23.12;49.07;101197.28;4868316;29;47024;-85